createdAt,value
2019-05-19T00:01:58.922Z,85.00
2019-05-19T00:04:27.296Z,84.90
2019-05-19T00:06:55.716Z,84.90
2019-05-19T00:09:24.097Z,85.10
2019-05-19T00:11:52.491Z,85.40
2019-05-19T00:14:20.869Z,85.60
2019-05-19T00:16:49.274Z,85.80
2019-05-19T00:19:26.375Z,86.10
2019-05-19T00:21:47.748Z,86.10
2019-05-19T00:24:16.175Z,85.80
2019-05-19T00:26:44.527Z,85.80
2019-05-19T00:29:12.908Z,86.40
2019-05-19T00:31:41.337Z,86.50
2019-05-19T00:34:09.718Z,86.60
2019-05-19T00:36:38.088Z,86.60
2019-05-19T00:39:06.629Z,86.90
2019-05-19T00:41:35.022Z,87.00
2019-05-19T00:44:03.416Z,87.10
2019-05-19T00:46:31.793Z,87.30
2019-05-19T00:49:00.204Z,87.60
2019-05-19T00:51:28.581Z,87.90
2019-05-19T00:53:56.963Z,88.90
2019-05-19T00:56:25.347Z,88.40
2019-05-19T00:58:54.043Z,88.20
2019-05-19T01:01:22.410Z,87.80
2019-05-19T01:03:50.803Z,88.60
2019-05-19T01:06:19.243Z,89.20
2019-05-19T01:08:47.698Z,89.20
2019-05-19T01:11:16.077Z,89.60
2019-05-19T01:13:44.544Z,89.70
2019-05-19T01:16:12.935Z,90.00
2019-05-19T01:18:41.320Z,90.00
2019-05-19T01:21:09.722Z,90.00
2019-05-19T01:23:38.113Z,90.10
2019-05-19T01:26:06.508Z,90.20
2019-05-19T01:28:34.888Z,90.20
2019-05-19T01:31:03.323Z,90.70
2019-05-19T01:33:31.893Z,90.60
2019-05-19T01:36:00.863Z,90.70
2019-05-19T01:38:29.256Z,90.80
2019-05-19T01:40:57.639Z,90.70
2019-05-19T01:43:26.030Z,90.60
2019-05-19T01:45:54.451Z,90.70
2019-05-19T01:48:22.832Z,90.80
2019-05-19T01:50:51.223Z,90.90
2019-05-19T01:53:19.627Z,91.00
2019-05-19T01:55:48.030Z,91.20
2019-05-19T01:58:16.410Z,91.20
2019-05-19T02:00:44.810Z,91.50
2019-05-19T02:03:13.220Z,91.20
2019-05-19T02:05:41.619Z,91.40
2019-05-19T02:08:10.001Z,91.40
2019-05-19T02:10:38.390Z,91.40
2019-05-19T02:13:06.780Z,91.40
2019-05-19T02:15:35.201Z,91.40
2019-05-19T02:18:03.602Z,91.30
2019-05-19T02:20:33.585Z,91.20
2019-05-19T02:23:02.037Z,91.60
2019-05-19T02:25:30.400Z,91.40
2019-05-19T02:27:58.802Z,91.40
2019-05-19T02:30:27.193Z,91.40
2019-05-19T02:32:55.589Z,91.50
2019-05-19T02:35:23.969Z,91.80
2019-05-19T02:37:52.385Z,91.50
2019-05-19T02:40:20.771Z,91.60
2019-05-19T02:42:49.630Z,91.70
2019-05-19T02:45:18.057Z,91.60
2019-05-19T02:47:46.429Z,91.50
2019-05-19T02:50:14.811Z,91.50
2019-05-19T02:52:44.412Z,91.40
2019-05-19T02:55:12.795Z,91.40
2019-05-19T02:57:41.346Z,91.40
2019-05-19T03:00:10.076Z,91.40
2019-05-19T03:02:38.449Z,91.40
2019-05-19T03:05:06.883Z,91.30
2019-05-19T03:07:35.262Z,91.30
2019-05-19T03:10:04.571Z,91.50
2019-05-19T03:12:32.956Z,91.20
2019-05-19T03:15:01.386Z,91.20
2019-05-19T03:17:29.784Z,91.10
2019-05-19T03:19:58.155Z,90.90
2019-05-19T03:22:26.578Z,90.80
2019-05-19T03:24:54.944Z,91.00
2019-05-19T03:27:23.324Z,90.90
2019-05-19T03:29:56.193Z,90.80
2019-05-19T03:32:26.224Z,91.00
2019-05-19T03:34:54.606Z,90.70
2019-05-19T03:37:23.000Z,90.50
2019-05-19T03:39:51.414Z,90.60
2019-05-19T03:42:19.789Z,90.80
2019-05-19T03:44:48.186Z,90.90
2019-05-19T03:47:16.611Z,91.00
2019-05-19T03:49:44.993Z,91.00
2019-05-19T03:52:13.359Z,91.50
2019-05-19T03:54:41.771Z,91.20
2019-05-19T03:57:10.211Z,91.10
2019-05-19T03:59:38.586Z,91.20
2019-05-19T04:02:06.985Z,91.50
2019-05-19T04:04:35.366Z,91.40
2019-05-19T04:07:03.750Z,91.40
2019-05-19T04:09:32.161Z,91.50
2019-05-19T04:12:00.542Z,91.50
2019-05-19T04:14:28.940Z,91.40
2019-05-19T04:16:57.329Z,91.30
2019-05-19T04:19:25.725Z,91.40
2019-05-19T04:21:54.126Z,91.40
2019-05-19T04:24:22.535Z,91.50
2019-05-19T04:26:50.907Z,91.60
2019-05-19T04:29:19.296Z,91.70
2019-05-19T04:31:47.738Z,91.70
2019-05-19T04:34:16.128Z,91.60
2019-05-19T04:36:44.509Z,91.80
2019-05-19T04:39:12.926Z,91.80
2019-05-19T04:41:41.309Z,92.00
2019-05-19T04:44:09.709Z,91.80
2019-05-19T04:46:38.170Z,91.70
2019-05-19T04:49:06.537Z,91.70
2019-05-19T04:51:34.917Z,91.60
2019-05-19T04:54:03.338Z,91.90
2019-05-19T04:56:31.726Z,92.00
2019-05-19T04:59:00.109Z,91.70
2019-05-19T05:01:28.502Z,91.80
2019-05-19T05:03:56.911Z,91.80
2019-05-19T05:06:25.303Z,91.90
2019-05-19T05:08:53.725Z,91.80
2019-05-19T05:11:22.105Z,91.90
2019-05-19T05:13:50.507Z,91.80
2019-05-19T05:16:18.910Z,91.80
2019-05-19T05:18:47.916Z,91.70
2019-05-19T05:21:16.373Z,91.60
2019-05-19T05:23:44.768Z,91.50
2019-05-19T05:26:13.170Z,91.30
2019-05-19T05:28:41.557Z,91.20
2019-05-19T05:31:09.966Z,91.10
2019-05-19T05:33:38.357Z,91.20
2019-05-19T05:36:06.735Z,91.10
2019-05-19T05:38:35.187Z,91.10
2019-05-19T05:41:03.577Z,91.10
2019-05-19T05:43:31.975Z,91.10
2019-05-19T05:46:00.408Z,90.90
2019-05-19T05:48:28.780Z,91.00
2019-05-19T05:50:57.171Z,91.20
2019-05-19T05:53:25.568Z,91.00
2019-05-19T05:55:53.997Z,90.80
2019-05-19T05:58:22.433Z,90.80
2019-05-19T06:00:50.817Z,90.60
2019-05-19T06:03:19.204Z,90.40
2019-05-19T06:05:47.608Z,90.10
2019-05-19T06:08:16.175Z,90.10
2019-05-19T06:10:44.598Z,90.10
2019-05-19T06:13:13.009Z,90.10
2019-05-19T06:15:41.455Z,90.00
2019-05-19T06:18:09.834Z,90.10
2019-05-19T06:20:38.239Z,90.00
2019-05-19T06:23:06.671Z,90.00
2019-05-19T06:25:35.116Z,89.80
2019-05-19T06:28:03.481Z,89.80
2019-05-19T06:30:31.866Z,89.60
2019-05-19T06:33:01.645Z,89.30
2019-05-19T06:35:30.029Z,89.00
2019-05-19T06:37:58.409Z,88.80
2019-05-19T06:40:26.796Z,89.00
2019-05-19T06:42:55.167Z,88.40
2019-05-19T06:45:23.637Z,88.40
2019-05-19T06:47:52.084Z,88.40
2019-05-19T06:50:20.484Z,88.20
2019-05-19T06:52:48.885Z,88.50
2019-05-19T06:55:17.273Z,88.10
2019-05-19T06:57:45.679Z,88.10
2019-05-19T07:00:14.133Z,88.50
2019-05-19T07:02:42.530Z,88.40
2019-05-19T07:05:10.909Z,88.60
2019-05-19T07:07:39.286Z,88.40
2019-05-19T07:10:08.001Z,88.30
2019-05-19T07:12:36.390Z,88.20
2019-05-19T07:15:05.918Z,87.80
2019-05-19T07:17:34.304Z,88.00
2019-05-19T07:20:02.707Z,88.40
2019-05-19T07:22:31.102Z,88.20
2019-05-19T07:24:59.497Z,88.40
2019-05-19T07:27:27.879Z,89.50
2019-05-19T07:29:56.321Z,89.70
2019-05-19T07:32:24.680Z,89.00
2019-05-19T07:34:53.057Z,88.80
2019-05-19T07:37:21.468Z,88.20
2019-05-19T07:39:49.839Z,88.30
2019-05-19T07:42:18.238Z,88.20
2019-05-19T07:44:46.671Z,88.20
2019-05-19T07:47:15.052Z,87.70
2019-05-19T07:49:43.475Z,88.20
2019-05-19T07:52:11.889Z,87.40
2019-05-19T07:54:40.256Z,87.40
2019-05-19T07:57:08.637Z,87.40
2019-05-19T07:59:37.041Z,86.50
2019-05-19T08:02:05.420Z,86.40
2019-05-19T08:04:33.827Z,86.10
2019-05-19T08:07:02.216Z,86.00
2019-05-19T08:09:30.601Z,85.70
2019-05-19T08:11:58.994Z,85.20
2019-05-19T08:14:27.368Z,84.40
2019-05-19T08:16:55.745Z,84.20
2019-05-19T08:19:24.162Z,84.30
2019-05-19T08:21:52.951Z,83.40
2019-05-19T08:24:21.330Z,82.40
2019-05-19T08:26:49.761Z,81.70
2019-05-19T08:29:18.254Z,81.30
2019-05-19T08:31:46.673Z,81.00
2019-05-19T08:34:15.146Z,79.80
2019-05-19T08:36:43.538Z,80.50
2019-05-19T08:39:11.930Z,80.70
2019-05-19T08:41:40.361Z,80.60
2019-05-19T08:44:08.741Z,79.70
2019-05-19T08:46:37.129Z,79.80
2019-05-19T08:49:05.561Z,79.70
2019-05-19T08:51:34.115Z,80.40
2019-05-19T08:54:13.862Z,80.40
2019-05-19T08:56:32.571Z,80.30
2019-05-19T08:59:00.996Z,80.80
2019-05-19T09:01:29.407Z,81.70
2019-05-19T09:03:58.178Z,80.80
2019-05-19T09:06:26.993Z,80.60
2019-05-19T09:08:55.403Z,80.60
2019-05-19T09:11:23.848Z,79.00
2019-05-19T09:13:52.229Z,79.20
2019-05-19T09:16:20.601Z,79.20
2019-05-19T09:18:49.114Z,78.90
2019-05-19T09:21:17.557Z,78.00
2019-05-19T09:23:45.947Z,77.50
2019-05-19T09:26:14.355Z,76.70
2019-05-19T09:28:42.756Z,76.10
2019-05-19T09:31:11.142Z,76.60
2019-05-19T09:33:39.546Z,76.40
2019-05-19T09:36:07.944Z,76.80
2019-05-19T09:38:36.375Z,75.80
2019-05-19T09:41:05.163Z,75.80
2019-05-19T09:43:33.549Z,76.10
2019-05-19T09:46:01.944Z,77.10
2019-05-19T09:48:30.367Z,77.60
2019-05-19T09:50:58.755Z,79.00
2019-05-19T09:53:28.833Z,79.00
2019-05-19T09:55:57.241Z,79.00
2019-05-19T09:58:25.707Z,79.10
2019-05-19T10:00:54.168Z,78.00
2019-05-19T10:03:22.541Z,78.30
2019-05-19T10:05:50.959Z,78.60
2019-05-19T10:08:22.142Z,78.00
2019-05-19T10:11:03.315Z,78.20
2019-05-19T10:13:31.706Z,77.90
2019-05-19T10:16:00.083Z,77.40
2019-05-19T10:18:28.536Z,77.60
2019-05-19T10:20:56.931Z,77.70
2019-05-19T10:23:25.291Z,78.30
2019-05-19T10:25:53.711Z,79.40
2019-05-19T10:28:22.096Z,78.90
2019-05-19T10:30:50.517Z,79.00
2019-05-19T10:33:18.905Z,78.90
2019-05-19T10:35:47.283Z,78.50
2019-05-19T10:38:17.810Z,77.70
2019-05-19T10:40:46.378Z,77.50
2019-05-19T10:43:14.799Z,76.70
2019-05-19T10:45:44.821Z,76.40
2019-05-19T10:48:13.195Z,76.10
2019-05-19T10:50:41.629Z,74.20
2019-05-19T10:53:10.017Z,74.00
2019-05-19T10:55:38.391Z,73.20
2019-05-19T10:58:06.823Z,73.30
2019-05-19T11:00:38.186Z,73.30
2019-05-19T11:03:06.564Z,72.60
2019-05-19T11:05:35.019Z,72.40
2019-05-19T11:08:03.400Z,72.50
2019-05-19T11:10:31.859Z,73.00
2019-05-19T11:13:00.416Z,73.30
2019-05-19T11:15:28.807Z,72.90
2019-05-19T11:17:57.221Z,72.50
2019-05-19T11:20:25.638Z,72.10
2019-05-19T11:22:54.027Z,71.60
2019-05-19T11:25:33.336Z,71.60
2019-05-19T11:27:52.495Z,70.40
2019-05-19T11:30:20.966Z,69.80
2019-05-19T11:32:49.370Z,69.50
2019-05-19T11:35:19.484Z,69.20
2019-05-19T11:37:47.929Z,66.80
2019-05-19T11:40:16.310Z,65.30
2019-05-19T11:42:46.834Z,65.20
2019-05-19T11:45:14.902Z,65.60
2019-05-19T11:47:43.325Z,64.70
2019-05-19T11:50:11.719Z,65.50
2019-05-19T11:52:40.147Z,65.20
2019-05-19T11:55:08.606Z,65.90
2019-05-19T11:57:37.012Z,66.80
2019-05-19T12:00:06.619Z,65.80
2019-05-19T12:02:35.065Z,65.80
2019-05-19T12:05:04.247Z,67.10
2019-05-19T12:07:32.707Z,67.00
2019-05-19T12:10:01.190Z,65.80
2019-05-19T12:12:29.572Z,65.90
2019-05-19T12:14:57.960Z,65.80
2019-05-19T12:17:26.385Z,68.00
2019-05-19T12:19:54.755Z,71.10
2019-05-19T12:22:23.164Z,73.00
2019-05-19T12:24:51.601Z,75.90
2019-05-19T12:27:19.986Z,76.30
2019-05-19T12:29:48.407Z,77.70
2019-05-19T12:32:16.834Z,77.40
2019-05-19T12:34:45.285Z,77.50
2019-05-19T12:37:13.682Z,77.80
2019-05-19T12:39:42.092Z,77.50
2019-05-19T12:42:10.507Z,77.40
2019-05-19T12:44:38.940Z,78.10
2019-05-19T12:47:07.344Z,76.20
2019-05-19T12:49:35.767Z,75.20
2019-05-19T12:52:04.183Z,72.90
2019-05-19T12:54:32.636Z,73.40
2019-05-19T12:57:01.013Z,72.70
2019-05-19T12:59:29.442Z,72.00
2019-05-19T13:01:57.904Z,70.90
2019-05-19T13:04:26.277Z,71.10
2019-05-19T13:06:54.705Z,70.20
2019-05-19T13:09:23.087Z,68.10
2019-05-19T13:11:51.526Z,68.80
2019-05-19T13:14:20.057Z,66.60
2019-05-19T13:16:48.446Z,66.10
2019-05-19T13:19:16.869Z,65.80
2019-05-19T13:21:45.242Z,64.70
2019-05-19T13:24:13.645Z,63.20
2019-05-19T13:26:55.546Z,62.30
2019-05-19T13:29:12.103Z,60.70
2019-05-19T13:31:40.489Z,60.40
2019-05-19T13:34:08.885Z,59.50
2019-05-19T13:36:40.180Z,60.60
2019-05-19T13:39:07.533Z,61.10
2019-05-19T13:41:35.911Z,59.20
2019-05-19T13:44:04.392Z,60.10
2019-05-19T13:46:32.852Z,62.10
2019-05-19T13:49:01.239Z,62.10
2019-05-19T13:51:29.622Z,62.50
2019-05-19T13:53:58.037Z,58.60
2019-05-19T13:56:26.415Z,55.50
2019-05-19T13:58:54.795Z,52.20
2019-05-19T14:01:28.742Z,52.30
2019-05-19T14:03:53.271Z,53.70
2019-05-19T14:06:21.649Z,55.60
2019-05-19T14:08:50.075Z,53.90
2019-05-19T14:11:18.515Z,51.00
2019-05-19T14:13:46.908Z,47.30
2019-05-19T14:16:15.348Z,43.80
2019-05-19T14:18:43.731Z,42.40
2019-05-19T14:21:12.128Z,42.90
2019-05-19T14:23:40.596Z,43.10
2019-05-19T14:26:09.175Z,43.00
2019-05-19T14:28:37.563Z,41.10
2019-05-19T14:31:06.006Z,38.10
2019-05-19T14:33:34.402Z,36.00
2019-05-19T14:36:02.827Z,35.30
2019-05-19T14:38:31.188Z,33.30
2019-05-19T14:41:01.222Z,30.60
2019-05-19T14:43:31.031Z,30.50
2019-05-19T14:45:59.465Z,29.80
2019-05-19T14:48:27.874Z,29.60
2019-05-19T14:50:56.259Z,29.90
2019-05-19T14:53:24.810Z,30.80
2019-05-19T14:55:54.764Z,29.80
2019-05-19T14:58:24.995Z,33.20
2019-05-19T15:00:56.069Z,38.10
2019-05-19T15:03:24.510Z,40.90
2019-05-19T15:05:52.952Z,44.10
2019-05-19T15:08:21.345Z,47.20
2019-05-19T15:10:49.731Z,48.90
2019-05-19T15:13:22.547Z,50.50
2019-05-19T15:15:57.935Z,51.40
2019-05-19T15:18:24.640Z,52.70
2019-05-19T15:20:53.027Z,53.50
2019-05-19T15:23:21.433Z,54.70
2019-05-19T15:25:49.854Z,55.10
2019-05-19T15:28:18.305Z,55.50
2019-05-19T15:30:46.683Z,56.40
2019-05-19T15:33:17.831Z,56.40
2019-05-19T15:35:46.247Z,56.00
2019-05-19T15:38:14.627Z,56.80
2019-05-19T15:40:43.046Z,57.30
2019-05-19T15:43:11.427Z,57.40
2019-05-19T15:45:39.842Z,57.20
2019-05-19T15:48:08.280Z,57.50
2019-05-19T15:50:36.659Z,58.00
2019-05-19T15:53:05.049Z,58.40
2019-05-19T15:55:33.480Z,58.70
2019-05-19T15:58:15.616Z,59.10
2019-05-19T16:00:31.891Z,59.50
2019-05-19T16:03:00.279Z,59.10
2019-05-19T16:05:28.676Z,59.30
2019-05-19T16:07:57.139Z,59.60
2019-05-19T16:10:25.635Z,60.30
2019-05-19T16:12:54.034Z,59.90
2019-05-19T16:15:22.538Z,59.90
2019-05-19T16:17:50.947Z,60.40
2019-05-19T16:20:19.435Z,60.90
2019-05-19T16:22:47.779Z,61.50
2019-05-19T16:25:16.444Z,61.60
2019-05-19T16:27:44.989Z,62.00
2019-05-19T16:30:13.468Z,62.50
2019-05-19T16:32:41.849Z,63.40
2019-05-19T16:35:10.629Z,63.00
2019-05-19T16:37:39.103Z,62.90
2019-05-19T16:40:07.520Z,63.20
2019-05-19T16:42:35.923Z,63.50
2019-05-19T16:45:07.467Z,63.10
2019-05-19T16:47:36.058Z,63.40
2019-05-19T16:50:05.905Z,64.60
2019-05-19T16:52:34.879Z,64.00
2019-05-19T16:55:20.741Z,63.70
2019-05-19T16:57:49.120Z,63.90
2019-05-19T17:00:17.665Z,64.00
2019-05-19T17:02:46.106Z,64.50
2019-05-19T17:05:17.369Z,64.00
2019-05-19T17:07:45.830Z,64.50
2019-05-19T17:10:14.467Z,64.60
2019-05-19T17:12:43.207Z,64.60
2019-05-19T17:15:11.614Z,65.00
2019-05-19T17:17:40.149Z,65.30
2019-05-19T17:20:08.527Z,65.30
2019-05-19T17:22:36.915Z,65.40
2019-05-19T17:25:06.576Z,65.30
2019-05-19T17:27:34.965Z,65.50
2019-05-19T17:30:05.379Z,66.10
2019-05-19T17:32:33.763Z,66.10
2019-05-19T17:35:02.195Z,66.00
2019-05-19T17:37:30.589Z,66.20
2019-05-19T17:39:58.963Z,66.50
2019-05-19T17:42:27.422Z,66.50
2019-05-19T17:44:55.805Z,66.60
2019-05-19T17:47:24.227Z,67.60
2019-05-19T17:49:52.807Z,67.70
2019-05-19T17:52:21.339Z,67.00
2019-05-19T17:54:49.731Z,67.30
2019-05-19T17:57:18.190Z,67.60
2019-05-19T17:59:48.122Z,67.90
2019-05-19T18:02:16.540Z,68.20
2019-05-19T18:04:44.951Z,68.20
2019-05-19T18:07:13.379Z,68.40
2019-05-19T18:09:41.783Z,68.60
2019-05-19T18:12:10.199Z,68.70
2019-05-19T18:14:38.608Z,69.00
2019-05-19T18:17:07.119Z,69.10
2019-05-19T18:19:35.547Z,69.40
2019-05-19T18:22:03.969Z,69.60
2019-05-19T18:24:32.351Z,69.90
2019-05-19T18:27:01.220Z,70.40
2019-05-19T18:29:31.666Z,70.40
2019-05-19T18:31:59.592Z,70.70
2019-05-19T18:34:28.081Z,71.10
2019-05-19T18:36:56.473Z,71.20
2019-05-19T18:39:24.894Z,72.90
2019-05-19T18:41:53.300Z,72.40
2019-05-19T18:44:21.701Z,72.60
2019-05-19T18:46:50.139Z,72.60
2019-05-19T18:49:18.571Z,72.90
2019-05-19T18:51:46.986Z,73.60
2019-05-19T18:54:15.388Z,73.90
2019-05-19T18:56:43.804Z,73.80
2019-05-19T18:59:12.175Z,74.00
2019-05-19T19:01:40.586Z,74.20
2019-05-19T19:04:09.036Z,74.60
2019-05-19T19:06:37.430Z,74.70
2019-05-19T19:09:06.283Z,75.00
2019-05-19T19:11:34.783Z,74.60
2019-05-19T19:14:04.091Z,75.50
2019-05-19T19:16:32.633Z,75.40
2019-05-19T19:19:01.046Z,75.50
2019-05-19T19:21:29.441Z,75.30
2019-05-19T19:23:57.947Z,75.40
2019-05-19T19:26:26.400Z,75.40
2019-05-19T19:28:54.858Z,75.50
2019-05-19T19:31:23.320Z,75.40
2019-05-19T19:33:51.734Z,75.60
2019-05-19T19:36:20.136Z,76.00
2019-05-19T19:38:48.536Z,76.20
2019-05-19T19:41:16.929Z,75.90
2019-05-19T19:43:45.386Z,76.00
2019-05-19T19:46:13.765Z,76.10
2019-05-19T19:48:42.206Z,76.20
2019-05-19T19:51:10.574Z,76.20
2019-05-19T19:53:38.947Z,76.40
2019-05-19T19:56:07.393Z,76.60
2019-05-19T19:58:35.822Z,77.50
2019-05-19T20:01:04.224Z,76.80
2019-05-19T20:03:32.760Z,77.30
2019-05-19T20:06:01.133Z,77.20
2019-05-19T20:08:29.527Z,77.60
2019-05-19T20:10:57.928Z,77.40
2019-05-19T20:13:26.325Z,77.60
2019-05-19T20:15:54.725Z,77.60
2019-05-19T20:18:23.169Z,77.80
2019-05-19T20:20:51.558Z,77.60
2019-05-19T20:23:20.036Z,77.90
2019-05-19T20:25:48.449Z,78.20
2019-05-19T20:28:16.838Z,78.40
2019-05-19T20:30:45.222Z,78.60
2019-05-19T20:33:13.663Z,78.80
2019-05-19T20:35:42.036Z,78.80
2019-05-19T20:38:10.486Z,78.90
2019-05-19T20:40:38.864Z,79.00
2019-05-19T20:43:07.276Z,79.40
2019-05-19T20:45:35.754Z,79.70
2019-05-19T20:48:04.126Z,79.90
2019-05-19T20:50:32.545Z,80.30
2019-05-19T20:53:00.990Z,80.50
2019-05-19T20:55:29.387Z,80.30
2019-05-19T20:57:57.873Z,80.50
2019-05-19T21:00:26.543Z,80.80
2019-05-19T21:02:54.956Z,81.00
2019-05-19T21:05:23.436Z,80.90
2019-05-19T21:07:51.907Z,81.00
2019-05-19T21:10:20.324Z,81.10
2019-05-19T21:12:48.781Z,81.30
2019-05-19T21:15:17.230Z,81.40
2019-05-19T21:17:45.634Z,81.40
2019-05-19T21:20:14.176Z,81.70
2019-05-19T21:22:42.716Z,81.90
2019-05-19T21:25:11.093Z,81.90
2019-05-19T21:27:39.638Z,82.30
2019-05-19T21:30:08.051Z,82.70
2019-05-19T21:32:36.433Z,83.20
2019-05-19T21:35:06.136Z,83.50
2019-05-19T21:37:34.529Z,83.80
2019-05-19T21:40:02.995Z,84.20
2019-05-19T21:42:31.412Z,84.50
2019-05-19T21:44:59.796Z,84.70
2019-05-19T21:47:28.175Z,84.60
2019-05-19T21:49:56.696Z,85.00
2019-05-19T21:52:25.087Z,85.30
2019-05-19T21:54:53.468Z,85.50
2019-05-19T21:57:21.850Z,85.60
2019-05-19T21:59:50.520Z,85.90
2019-05-19T22:02:18.908Z,86.10
2019-05-19T22:04:47.371Z,86.30
2019-05-19T22:07:17.416Z,86.50
2019-05-19T22:09:45.867Z,86.40
2019-05-19T22:12:14.271Z,86.80
2019-05-19T22:14:42.685Z,86.90
2019-05-19T22:17:11.127Z,87.00
2019-05-19T22:19:39.636Z,87.30
2019-05-19T22:22:08.040Z,87.20
2019-05-19T22:24:36.489Z,88.20
2019-05-19T22:27:04.866Z,87.60
2019-05-19T22:29:33.460Z,87.60
2019-05-19T22:32:02.083Z,87.70
2019-05-19T22:34:30.436Z,88.00
2019-05-19T22:36:58.853Z,88.40
2019-05-19T22:39:27.367Z,88.40
2019-05-19T22:41:55.745Z,88.50
2019-05-19T22:44:24.166Z,88.60
2019-05-19T22:46:52.543Z,88.60
2019-05-19T22:49:20.926Z,88.80
2019-05-19T22:51:49.312Z,88.80
2019-05-19T22:54:17.668Z,89.00
2019-05-19T22:56:46.078Z,89.20
2019-05-19T22:59:19.826Z,89.60
2019-05-19T23:01:51.721Z,89.60
2019-05-19T23:04:14.621Z,89.20
2019-05-19T23:06:43.040Z,89.70
2019-05-19T23:09:11.424Z,89.70
2019-05-19T23:11:39.788Z,89.70
2019-05-19T23:14:08.271Z,89.80
2019-05-19T23:16:36.650Z,89.80
2019-05-19T23:19:05.027Z,90.00
2019-05-19T23:21:34.523Z,89.90
2019-05-19T23:24:03.356Z,89.60
2019-05-19T23:26:31.840Z,89.70
2019-05-19T23:29:00.262Z,89.80
2019-05-19T23:31:28.712Z,89.70
2019-05-19T23:34:00.536Z,89.90
2019-05-19T23:36:28.846Z,89.90
2019-05-19T23:38:57.234Z,90.00
2019-05-19T23:41:25.662Z,90.00
2019-05-19T23:43:54.040Z,90.00
2019-05-19T23:46:22.417Z,90.00
2019-05-19T23:48:50.832Z,90.00
2019-05-19T23:51:19.211Z,90.00
2019-05-19T23:53:47.623Z,90.00
2019-05-19T23:56:15.930Z,90.20
2019-05-19T23:58:44.291Z,89.80
